createdAt,value
2022-09-23T00:01:59.951Z,9.33
2022-09-23T00:04:27.454Z,6.90
2022-09-23T00:06:53.806Z,7.13
2022-09-23T00:09:20.213Z,4.80
2022-09-23T00:11:46.627Z,8.13
2022-09-23T00:14:13.101Z,6.33
2022-09-23T00:16:40.267Z,4.90
2022-09-23T00:19:06.748Z,5.40
2022-09-23T00:21:33.141Z,6.30
2022-09-23T00:24:01.078Z,5.73
2022-09-23T00:26:27.925Z,9.60
2022-09-23T00:28:54.615Z,6.47
2022-09-23T00:31:22.505Z,6.60
2022-09-23T00:33:56.687Z,6.43
2022-09-23T00:36:23.156Z,6.43
2022-09-23T00:38:49.534Z,5.10
2022-09-23T00:41:16.367Z,7.40
2022-09-23T00:43:42.851Z,5.93
2022-09-23T00:46:10.261Z,6.50
2022-09-23T00:48:37.965Z,7.57
2022-09-23T00:51:06.023Z,6.93
2022-09-23T00:53:32.433Z,9.27
2022-09-23T00:56:01.565Z,8.03
2022-09-23T00:58:31.267Z,8.07
2022-09-23T01:00:59.726Z,8.23
2022-09-23T01:03:26.366Z,7.67
2022-09-23T01:05:53.164Z,7.43
2022-09-23T01:08:20.664Z,7.20
2022-09-23T01:10:57.215Z,7.70
2022-09-23T01:13:32.294Z,6.20
2022-09-23T01:16:05.844Z,6.87
2022-09-23T01:18:39.053Z,7.50
2022-09-23T01:21:15.158Z,7.93
2022-09-23T01:23:47.567Z,8.97
2022-09-23T01:26:30.436Z,6.60
2022-09-23T01:29:15.726Z,5.70
2022-09-23T01:31:44.344Z,4.50
2022-09-23T01:34:26.427Z,4.53
2022-09-23T01:37:14.230Z,5.27
2022-09-23T01:39:44.596Z,5.13
2022-09-23T01:42:17.443Z,5.17
2022-09-23T01:44:48.553Z,11.53
2022-09-23T01:47:17.534Z,4.43
2022-09-23T01:49:50.039Z,4.43
2022-09-23T01:52:36.739Z,4.80
2022-09-23T01:55:41.558Z,7.03
2022-09-23T01:58:12.228Z,6.70
2022-09-23T02:00:42.008Z,3.80
2022-09-23T02:03:12.797Z,5.47
2022-09-23T02:05:41.397Z,3.40
2022-09-23T02:08:11.487Z,3.53
2022-09-23T02:10:44.286Z,5.73
2022-09-23T02:13:15.995Z,4.50
2022-09-23T02:15:46.159Z,7.30
2022-09-23T02:18:14.316Z,4.00
2022-09-23T02:20:40.760Z,4.03
2022-09-23T02:23:11.631Z,4.03
2022-09-23T02:25:42.783Z,3.53
2022-09-23T02:28:13.401Z,4.87
2022-09-23T02:30:45.148Z,3.20
2022-09-23T02:33:15.516Z,5.73
2022-09-23T02:35:54.229Z,4.50
2022-09-23T02:38:24.410Z,5.97
2022-09-23T02:40:57.567Z,5.20
2022-09-23T02:43:46.321Z,6.60
2022-09-23T02:46:13.169Z,3.53
2022-09-23T02:48:41.730Z,5.17
2022-09-23T02:51:08.566Z,4.73
2022-09-23T02:53:35.068Z,5.20
2022-09-23T02:56:01.990Z,3.67
2022-09-23T02:58:28.893Z,5.20
2022-09-23T03:01:15.400Z,5.57
2022-09-23T03:03:46.919Z,3.40
2022-09-23T03:06:24.911Z,5.27
2022-09-23T03:08:54.911Z,3.73
2022-09-23T03:11:21.797Z,4.10
2022-09-23T03:13:54.042Z,6.03
2022-09-23T03:16:30.031Z,5.40
2022-09-23T03:19:12.974Z,6.20
2022-09-23T03:21:43.549Z,5.87
2022-09-23T03:24:13.277Z,6.27
2022-09-23T03:26:40.841Z,5.90
2022-09-23T03:29:09.455Z,4.90
2022-09-23T03:31:36.603Z,6.47
2022-09-23T03:34:05.576Z,5.80
2022-09-23T03:36:52.010Z,5.80
2022-09-23T03:39:26.565Z,4.57
2022-09-23T03:41:55.167Z,5.77
2022-09-23T03:44:21.648Z,3.87
2022-09-23T03:46:51.156Z,4.50
2022-09-23T03:49:27.369Z,5.63
2022-09-23T03:51:54.474Z,4.47
2022-09-23T03:54:20.945Z,3.43
2022-09-23T03:56:50.393Z,3.57
2022-09-23T03:59:16.919Z,4.47
2022-09-23T04:01:43.834Z,5.60
2022-09-23T04:04:10.563Z,4.93
2022-09-23T04:06:37.141Z,7.23
2022-09-23T04:09:03.730Z,4.50
2022-09-23T04:11:30.282Z,5.37
2022-09-23T04:13:56.928Z,4.23
2022-09-23T04:16:23.776Z,5.20
2022-09-23T04:18:50.355Z,4.40
2022-09-23T04:21:16.905Z,4.63
2022-09-23T04:23:43.431Z,4.30
2022-09-23T04:26:10.019Z,6.00
2022-09-23T04:28:36.607Z,4.40
2022-09-23T04:31:07.303Z,6.20
2022-09-23T04:33:34.398Z,6.73
2022-09-23T04:36:00.986Z,4.47
2022-09-23T04:38:27.562Z,4.10
2022-09-23T04:40:54.104Z,4.53
2022-09-23T04:43:23.448Z,6.67
2022-09-23T04:46:15.130Z,7.00
2022-09-23T04:48:42.477Z,5.93
2022-09-23T04:51:10.719Z,6.73
2022-09-23T04:53:38.189Z,8.67
2022-09-23T04:56:05.821Z,5.17
2022-09-23T04:58:33.750Z,4.80
2022-09-23T05:01:08.532Z,5.67
2022-09-23T05:03:35.761Z,6.07
2022-09-23T05:06:02.325Z,7.07
2022-09-23T05:08:29.004Z,5.80
2022-09-23T05:10:59.281Z,7.30
2022-09-23T05:13:26.223Z,6.93
2022-09-23T05:15:59.585Z,7.63
2022-09-23T05:18:26.145Z,8.57
2022-09-23T05:20:53.569Z,38.30
2022-09-23T05:23:20.081Z,9.77
2022-09-23T05:25:48.251Z,7.43
2022-09-23T05:28:18.263Z,6.40
2022-09-23T05:30:44.902Z,6.30
2022-09-23T05:33:11.831Z,7.37
2022-09-23T05:35:38.314Z,7.67
2022-09-23T05:38:04.833Z,8.63
2022-09-23T05:40:31.360Z,10.47
2022-09-23T05:43:05.473Z,13.13
2022-09-23T05:45:32.132Z,13.97
2022-09-23T05:47:58.998Z,15.93
2022-09-23T05:50:25.505Z,14.23
2022-09-23T05:52:52.346Z,10.87
2022-09-23T05:55:18.829Z,18.07
2022-09-23T05:57:45.350Z,15.67
2022-09-23T06:00:12.096Z,12.50
2022-09-23T06:02:38.709Z,11.03
2022-09-23T06:05:05.427Z,10.30
2022-09-23T06:07:32.726Z,7.73
2022-09-23T06:09:59.482Z,9.57
2022-09-23T06:12:26.028Z,6.70
2022-09-23T06:14:53.079Z,6.73
2022-09-23T06:17:19.631Z,7.23
2022-09-23T06:19:46.207Z,6.53
2022-09-23T06:22:16.889Z,8.63
2022-09-23T06:24:43.375Z,5.63
2022-09-23T06:27:10.261Z,6.40
2022-09-23T06:29:37.015Z,4.47
2022-09-23T06:32:04.142Z,3.60
2022-09-23T06:34:33.158Z,3.80
2022-09-23T06:37:15.034Z,7.20
2022-09-23T06:39:43.517Z,5.63
2022-09-23T06:42:10.049Z,4.47
2022-09-23T06:44:36.563Z,6.40
2022-09-23T06:47:03.258Z,5.80
2022-09-23T06:49:29.924Z,6.90
2022-09-23T06:51:56.603Z,10.63
2022-09-23T06:54:23.152Z,9.33
2022-09-23T06:56:49.651Z,9.27
2022-09-23T06:59:17.115Z,5.90
2022-09-23T07:01:45.285Z,9.27
2022-09-23T07:04:11.931Z,12.43
2022-09-23T07:06:38.547Z,8.97
2022-09-23T07:09:06.044Z,3.83
2022-09-23T07:11:32.718Z,5.47
2022-09-23T07:13:59.307Z,9.77
2022-09-23T07:16:25.995Z,11.27
2022-09-23T07:18:53.511Z,8.83
2022-09-23T07:21:20.417Z,7.60
2022-09-23T07:23:47.980Z,7.87
2022-09-23T07:26:15.834Z,9.30
2022-09-23T07:28:42.925Z,7.30
2022-09-23T07:31:11.391Z,6.27
2022-09-23T07:33:41.886Z,5.57
2022-09-23T07:36:09.563Z,4.17
2022-09-23T07:38:37.963Z,4.17
2022-09-23T07:41:08.153Z,4.47
2022-09-23T07:43:34.831Z,6.93
2022-09-23T07:46:03.285Z,5.63
2022-09-23T07:48:34.132Z,5.03
2022-09-23T07:51:01.898Z,3.20
2022-09-23T07:53:28.623Z,4.63
2022-09-23T07:55:55.844Z,2.33
2022-09-23T07:58:22.825Z,3.47
2022-09-23T08:00:50.942Z,2.40
2022-09-23T08:03:17.677Z,2.13
2022-09-23T08:05:44.484Z,3.37
2022-09-23T08:08:11.305Z,1.80
2022-09-23T08:10:37.880Z,4.83
2022-09-23T08:13:04.445Z,2.07
2022-09-23T08:15:31.319Z,2.00
2022-09-23T08:17:59.790Z,2.27
2022-09-23T08:20:47.165Z,1.17
2022-09-23T08:23:14.990Z,1.60
2022-09-23T08:25:44.973Z,1.30
2022-09-23T08:28:17.334Z,1.30
2022-09-23T08:30:44.572Z,1.93
2022-09-23T08:33:14.036Z,1.53
2022-09-23T08:35:40.905Z,1.00
2022-09-23T08:38:07.988Z,1.47
2022-09-23T08:40:35.564Z,1.33
2022-09-23T08:43:02.279Z,2.13
2022-09-23T08:45:29.199Z,2.10
2022-09-23T08:48:01.902Z,1.20
2022-09-23T08:50:45.436Z,2.10
2022-09-23T08:53:15.295Z,3.47
2022-09-23T08:55:43.757Z,1.40
2022-09-23T08:58:27.025Z,1.70
2022-09-23T09:01:06.908Z,2.33
2022-09-23T09:03:53.848Z,2.20
2022-09-23T09:06:23.184Z,1.33
2022-09-23T09:08:57.498Z,0.93
2022-09-23T09:11:27.463Z,1.20
2022-09-23T09:13:59.851Z,1.30
2022-09-23T09:16:42.103Z,23.67
2022-09-23T09:19:32.446Z,6.17
2022-09-23T09:21:59.401Z,2.00
2022-09-23T09:24:31.814Z,0.93
2022-09-23T09:26:58.590Z,1.20
2022-09-23T09:29:36.109Z,1.80
2022-09-23T09:32:14.085Z,1.20
2022-09-23T09:34:44.022Z,1.30
2022-09-23T09:37:13.755Z,1.17
2022-09-23T09:39:40.701Z,1.80
2022-09-23T09:42:07.634Z,2.93
2022-09-23T09:44:38.955Z,1.73
2022-09-23T09:47:07.662Z,1.20
2022-09-23T09:49:39.509Z,2.53
2022-09-23T09:52:33.373Z,2.27
2022-09-23T09:55:12.029Z,1.97
2022-09-23T09:57:42.720Z,2.10
2022-09-23T10:00:18.906Z,1.77
2022-09-23T10:02:46.792Z,2.57
2022-09-23T10:05:28.604Z,2.10
2022-09-23T10:07:55.287Z,2.27
2022-09-23T10:10:33.880Z,2.10
2022-09-23T10:13:13.598Z,2.43
2022-09-23T10:15:45.137Z,2.97
2022-09-23T10:18:22.263Z,2.57
2022-09-23T10:20:48.885Z,3.00
2022-09-23T10:23:17.939Z,3.23
2022-09-23T10:25:54.711Z,1.93
2022-09-23T10:28:30.812Z,2.07
2022-09-23T10:31:14.637Z,2.43
2022-09-23T10:33:51.473Z,1.77
2022-09-23T10:36:18.601Z,2.90
2022-09-23T10:38:47.547Z,1.27
2022-09-23T10:41:39.366Z,1.83
2022-09-23T10:44:39.420Z,4.70
2022-09-23T10:47:05.938Z,3.40
2022-09-23T10:49:41.550Z,1.10
2022-09-23T10:52:32.380Z,1.73
2022-09-23T10:55:07.734Z,1.07
2022-09-23T10:57:46.336Z,1.37
2022-09-23T11:00:32.621Z,1.07
2022-09-23T11:03:09.676Z,1.50
2022-09-23T11:05:36.156Z,1.07
2022-09-23T11:08:21.159Z,1.80
2022-09-23T11:11:15.072Z,1.40
2022-09-23T11:14:01.158Z,1.20
2022-09-23T11:16:32.145Z,1.53
2022-09-23T11:19:05.984Z,1.30
2022-09-23T11:21:38.516Z,1.03
2022-09-23T11:24:17.981Z,1.50
2022-09-23T11:27:24.108Z,2.33
2022-09-23T11:29:59.597Z,2.57
2022-09-23T11:32:29.098Z,3.07
2022-09-23T11:34:58.490Z,1.47
2022-09-23T11:37:27.965Z,1.23
2022-09-23T11:40:03.686Z,1.47
2022-09-23T11:42:35.557Z,2.23
2022-09-23T11:45:22.797Z,0.90
2022-09-23T11:47:54.710Z,1.03
2022-09-23T11:50:27.110Z,1.77
2022-09-23T11:52:58.877Z,1.20
2022-09-23T11:55:31.934Z,0.90
2022-09-23T11:58:06.384Z,1.37
2022-09-23T12:00:38.794Z,55.03
2022-09-23T12:03:18.596Z,3.87
2022-09-23T12:05:47.513Z,6.10
2022-09-23T12:08:47.153Z,18.20
2022-09-23T12:11:19.637Z,7.90
2022-09-23T12:14:09.231Z,2.23
2022-09-23T12:16:54.502Z,2.47
2022-09-23T12:19:28.342Z,2.10
2022-09-23T12:22:05.185Z,1.20
2022-09-23T12:24:31.709Z,1.33
2022-09-23T12:27:00.180Z,2.10
2022-09-23T12:31:54.239Z,4.13
2022-09-23T12:34:20.813Z,2.83
2022-09-23T12:36:47.441Z,1.53
2022-09-23T12:39:17.378Z,1.30
2022-09-23T12:41:47.011Z,1.87
2022-09-23T12:44:25.572Z,1.37
2022-09-23T12:47:12.018Z,2.40
2022-09-23T12:49:38.807Z,1.67
2022-09-23T12:52:17.356Z,1.30
2022-09-23T12:54:47.947Z,2.00
2022-09-23T12:57:34.567Z,1.83
2022-09-23T13:00:01.220Z,5.73
2022-09-23T13:02:27.999Z,6.07
2022-09-23T13:05:21.836Z,2.13
2022-09-23T13:07:49.812Z,2.00
2022-09-23T13:10:19.518Z,1.90
2022-09-23T13:12:46.873Z,1.50
2022-09-23T13:15:34.068Z,2.30
2022-09-23T13:18:18.984Z,3.10
2022-09-23T13:20:49.691Z,2.00
2022-09-23T13:23:20.340Z,1.60
2022-09-23T13:25:47.517Z,2.57
2022-09-23T13:28:21.659Z,2.70
2022-09-23T13:30:49.873Z,5.23
2022-09-23T13:33:18.686Z,3.67
2022-09-23T13:35:51.225Z,3.57
2022-09-23T13:38:17.846Z,6.13
2022-09-23T13:40:45.136Z,1.63
2022-09-23T13:43:41.328Z,2.23
2022-09-23T13:46:17.356Z,4.40
2022-09-23T13:48:45.343Z,4.97
2022-09-23T13:51:15.281Z,4.10
2022-09-23T13:53:41.868Z,2.73
2022-09-23T13:56:15.251Z,2.13
2022-09-23T13:58:41.921Z,1.77
2022-09-23T14:01:09.328Z,2.47
2022-09-23T14:03:37.313Z,1.70
2022-09-23T14:06:05.568Z,1.77
2022-09-23T14:08:32.499Z,1.13
2022-09-23T14:10:59.660Z,5.43
2022-09-23T14:13:27.717Z,3.97
2022-09-23T14:15:56.033Z,3.37
2022-09-23T14:18:27.480Z,1.60
2022-09-23T14:20:54.212Z,1.77
2022-09-23T14:23:20.763Z,1.70
2022-09-23T14:25:47.659Z,1.40
2022-09-23T14:28:18.528Z,1.80
2022-09-23T14:30:48.127Z,2.20
2022-09-23T14:33:19.674Z,1.57
2022-09-23T14:35:48.376Z,3.10
2022-09-23T14:38:40.137Z,1.70
2022-09-23T14:41:16.892Z,1.67
2022-09-23T14:44:02.304Z,5.83
2022-09-23T14:46:34.454Z,8.03
2022-09-23T14:49:06.066Z,4.77
2022-09-23T14:51:37.470Z,3.87
2022-09-23T14:54:22.436Z,7.27
2022-09-23T14:56:48.990Z,4.73
2022-09-23T14:59:26.391Z,2.97
2022-09-23T15:01:52.962Z,1.60
2022-09-23T15:04:22.255Z,2.13
2022-09-23T15:06:56.071Z,3.47
2022-09-23T15:09:24.028Z,2.87
2022-09-23T15:11:56.643Z,1.40
2022-09-23T15:14:38.294Z,2.60
2022-09-23T15:17:11.796Z,2.63
2022-09-23T15:19:39.148Z,1.83
2022-09-23T15:22:07.867Z,1.70
2022-09-23T15:24:39.032Z,1.20
2022-09-23T15:27:24.255Z,2.03
2022-09-23T15:29:51.071Z,1.67
2022-09-23T15:32:17.656Z,3.37
2022-09-23T15:34:44.170Z,1.30
2022-09-23T15:37:12.608Z,1.83
2022-09-23T15:39:39.106Z,1.20
2022-09-23T15:42:07.279Z,1.47
2022-09-23T15:44:35.384Z,1.80
2022-09-23T15:47:02.131Z,2.23
2022-09-23T15:49:31.375Z,8.37
2022-09-23T15:52:01.634Z,8.97
2022-09-23T15:54:28.658Z,8.50
2022-09-23T15:56:56.410Z,7.10
2022-09-23T15:59:24.145Z,3.90
2022-09-23T16:01:52.932Z,4.10
2022-09-23T16:04:19.763Z,2.90
2022-09-23T16:06:48.518Z,4.80
2022-09-23T16:09:15.580Z,4.00
2022-09-23T16:11:46.376Z,4.13
2022-09-23T16:14:14.348Z,1.90
2022-09-23T16:16:42.308Z,2.60
2022-09-23T16:19:08.930Z,3.70
2022-09-23T16:21:35.476Z,2.77
2022-09-23T16:24:04.819Z,2.97
2022-09-23T16:26:35.152Z,2.87
2022-09-23T16:29:02.376Z,6.77
2022-09-23T16:31:34.369Z,18.00
2022-09-23T16:34:02.353Z,16.57
2022-09-23T16:36:33.304Z,15.70
2022-09-23T16:39:01.187Z,18.97
2022-09-23T16:41:29.514Z,33.17
2022-09-23T16:43:57.432Z,21.80
2022-09-23T16:46:24.098Z,21.40
2022-09-23T16:48:52.862Z,22.10
2022-09-23T16:51:23.939Z,28.60
2022-09-23T16:53:51.417Z,39.47
2022-09-23T16:56:25.659Z,21.00
2022-09-23T16:58:54.537Z,22.37
2022-09-23T17:01:41.560Z,62.57
2022-09-23T17:04:10.300Z,45.33
2022-09-23T17:06:42.156Z,18.03
2022-09-23T17:09:09.769Z,15.60
2022-09-23T17:11:38.098Z,24.60
2022-09-23T17:14:05.484Z,10.57
2022-09-23T17:16:32.695Z,7.87
2022-09-23T17:18:59.289Z,22.50
2022-09-23T17:21:27.310Z,19.93
2022-09-23T17:23:54.578Z,20.33
2022-09-23T17:26:23.569Z,20.43
2022-09-23T17:28:51.580Z,16.27
2022-09-23T17:31:18.385Z,19.20
2022-09-23T17:33:45.072Z,24.30
2022-09-23T17:36:13.676Z,18.70
2022-09-23T17:38:42.639Z,17.87
2022-09-23T17:41:09.244Z,7.87
2022-09-23T17:43:36.384Z,9.40
2022-09-23T17:46:06.516Z,13.60
2022-09-23T17:48:34.587Z,17.37
2022-09-23T17:51:05.879Z,12.03
2022-09-23T17:53:33.486Z,10.53
2022-09-23T17:56:01.062Z,11.50
2022-09-23T17:58:28.682Z,8.87
2022-09-23T18:00:56.763Z,15.80
2022-09-23T18:03:23.882Z,12.57
2022-09-23T18:05:50.829Z,9.30
2022-09-23T18:08:21.549Z,8.87
2022-09-23T18:10:48.952Z,12.83
2022-09-23T18:13:15.791Z,14.13
2022-09-23T18:15:42.702Z,23.73
2022-09-23T18:18:09.618Z,21.27
2022-09-23T18:20:36.329Z,16.27
2022-09-23T18:23:02.985Z,16.83
2022-09-23T18:25:39.237Z,14.17
2022-09-23T18:28:06.436Z,19.10
2022-09-23T18:30:33.756Z,117.33
2022-09-23T18:33:01.681Z,56.60
2022-09-23T18:35:28.870Z,27.87
2022-09-23T18:37:56.519Z,15.43
2022-09-23T18:40:25.926Z,24.00
2022-09-23T18:42:52.566Z,21.67
2022-09-23T18:45:19.630Z,15.00
2022-09-23T18:48:05.219Z,7.80
2022-09-23T18:50:43.412Z,10.27
2022-09-23T18:53:11.002Z,7.77
2022-09-23T18:55:38.208Z,11.43
2022-09-23T18:58:07.908Z,10.20
2022-09-23T19:00:35.303Z,14.40
2022-09-23T19:03:02.723Z,23.27
2022-09-23T19:05:29.682Z,22.43
2022-09-23T19:07:56.612Z,13.60
2022-09-23T19:10:24.255Z,13.97
2022-09-23T19:12:51.315Z,11.93
2022-09-23T19:15:18.253Z,10.10
2022-09-23T19:17:45.563Z,7.33
2022-09-23T19:20:12.979Z,9.37
2022-09-23T19:22:40.198Z,6.90
2022-09-23T19:25:07.884Z,6.77
2022-09-23T19:27:36.233Z,5.77
2022-09-23T19:30:03.165Z,5.83
2022-09-23T19:32:30.146Z,8.27
2022-09-23T19:35:00.796Z,19.00
2022-09-23T19:37:27.347Z,59.27
2022-09-23T19:39:54.013Z,26.43
2022-09-23T19:42:20.992Z,7.93
2022-09-23T19:44:47.882Z,6.73
2022-09-23T19:47:17.528Z,3.33
2022-09-23T19:49:44.349Z,2.67
2022-09-23T19:52:11.024Z,2.97
2022-09-23T19:54:37.748Z,2.53
2022-09-23T19:57:05.248Z,4.90
2022-09-23T19:59:32.028Z,5.57
2022-09-23T20:01:59.064Z,8.00
2022-09-23T20:04:26.486Z,7.40
2022-09-23T20:06:53.164Z,7.03
2022-09-23T20:09:20.088Z,8.13
2022-09-23T20:11:47.195Z,5.47
2022-09-23T20:14:14.265Z,5.10
2022-09-23T20:16:40.894Z,34.63
2022-09-23T20:19:07.752Z,27.97
2022-09-23T20:21:34.630Z,22.57
2022-09-23T20:24:01.943Z,5.60
2022-09-23T20:26:47.362Z,5.83
2022-09-23T20:29:14.040Z,7.67
2022-09-23T20:31:41.200Z,20.00
2022-09-23T20:34:08.479Z,7.80
2022-09-23T20:36:36.335Z,18.60
2022-09-23T20:39:06.115Z,5.93
2022-09-23T20:41:36.973Z,4.23
2022-09-23T20:44:05.977Z,6.17
2022-09-23T20:46:32.758Z,4.73
2022-09-23T20:48:59.714Z,3.70
2022-09-23T20:51:26.441Z,3.80
2022-09-23T20:53:53.123Z,5.33
2022-09-23T20:56:22.922Z,5.23
2022-09-23T20:58:50.911Z,5.03
2022-09-23T21:01:17.892Z,6.57
2022-09-23T21:03:46.523Z,4.67
2022-09-23T21:06:14.579Z,4.07
2022-09-23T21:08:41.861Z,7.00
2022-09-23T21:11:10.179Z,4.17
2022-09-23T21:13:36.990Z,3.97
2022-09-23T21:16:04.607Z,4.53
2022-09-23T21:18:31.389Z,7.40
2022-09-23T21:20:58.832Z,6.53
2022-09-23T21:23:29.503Z,6.20
2022-09-23T21:26:03.126Z,5.47
2022-09-23T21:28:33.048Z,4.57
2022-09-23T21:31:04.403Z,4.17
2022-09-23T21:33:31.096Z,4.13
2022-09-23T21:35:59.054Z,6.70
2022-09-23T21:38:25.557Z,6.13
2022-09-23T21:40:59.011Z,4.30
2022-09-23T21:43:26.711Z,6.10
2022-09-23T21:45:58.906Z,2.93
2022-09-23T21:48:26.745Z,3.20
2022-09-23T21:51:00.466Z,3.83
2022-09-23T21:53:29.502Z,4.10
2022-09-23T21:56:03.644Z,6.60
2022-09-23T21:58:34.566Z,4.27
2022-09-23T22:01:01.494Z,4.17
2022-09-23T22:03:28.457Z,5.13
2022-09-23T22:06:09.022Z,6.97
2022-09-23T22:08:37.103Z,8.43
2022-09-23T22:11:31.895Z,6.93
2022-09-23T22:13:59.128Z,8.30
2022-09-23T22:16:26.254Z,6.23
2022-09-23T22:18:55.308Z,4.93
2022-09-23T22:21:23.166Z,7.07
2022-09-23T22:23:53.579Z,7.30
2022-09-23T22:26:20.186Z,5.13
2022-09-23T22:29:05.381Z,5.40
2022-09-23T22:31:50.313Z,6.03
2022-09-23T22:34:47.428Z,5.83
2022-09-23T22:37:03.526Z,4.10
2022-09-23T22:39:30.569Z,6.33
2022-09-23T22:41:58.490Z,6.33
2022-09-23T22:44:25.721Z,4.90
2022-09-23T22:46:52.250Z,2.83
2022-09-23T22:49:21.735Z,7.07
2022-09-23T22:51:48.343Z,4.10
2022-09-23T22:54:15.460Z,3.80
2022-09-23T22:56:42.000Z,4.37
2022-09-23T22:59:10.062Z,4.47
2022-09-23T23:01:36.730Z,2.80
2022-09-23T23:04:03.418Z,4.70
2022-09-23T23:06:35.983Z,3.63
2022-09-23T23:09:13.928Z,3.50
2022-09-23T23:11:42.308Z,5.20
2022-09-23T23:14:09.740Z,4.10
2022-09-23T23:16:36.485Z,4.00
2022-09-23T23:19:06.905Z,2.80
2022-09-23T23:21:33.940Z,3.23
2022-09-23T23:24:00.545Z,3.80
2022-09-23T23:26:28.185Z,2.53
2022-09-23T23:28:55.243Z,2.17
2022-09-23T23:31:23.148Z,3.93
2022-09-23T23:33:49.737Z,4.13
2022-09-23T23:36:17.798Z,4.00
2022-09-23T23:38:45.437Z,6.43
2022-09-23T23:41:13.185Z,4.77
2022-09-23T23:43:44.225Z,4.63
2022-09-23T23:46:12.107Z,6.17
2022-09-23T23:48:39.391Z,4.60
2022-09-23T23:51:07.160Z,4.37
2022-09-23T23:53:35.045Z,3.60
2022-09-23T23:56:02.444Z,4.43
2022-09-23T23:58:29.614Z,6.47
